Terminal Aerodrome Forecast
Issued by NWS

Home | Current Version | Previous Version | Text Only | Print | Product List | Glossary On
Versions: 1 2 3 4 5 6 7 8 9 10 11 12 13 14 15 16 17 18 19 20 21 22 23 24 25 26 27 28 29 30 31 32 33
000
FTUS43 KDDC 250039 AAB
TAFHYS
TAF AMD
KHYS 250039Z 2501/2524 06015G25KT 5SM -TSRA BR BKN040CB
      TEMPO 2501/2503 VRB25G40KT 1SM TSRA BR BKN030CB
     FM250400 14015G23KT P6SM VCTS BKN200CB
     FM250700 16014KT P6SM BKN050 WS020/18045KT
     FM251100 18012KT P6SM SCT050=

USA.gov is the U.S. government's official web portal to all federal, state and local government web resources and services.